Argyle, Canada
Current Conditions -  °F | °C
As of 2:00 PM on Thursday 29 Jan 2015 (Local Time) from CYQI Reporting Station
Clear Clear  
Wind Chill: 24°   Ceiling: Unl
Heat Index: 30°   Visibility: 15mi
Dew Point: 21°   Wind: 6mph
Humidity: 69%   Direction: 50°NE
Pressure: 30.18"   Gusts: NA
Location:  43.8°N, 65.85°W
Report Text: CYQI 291800Z 05005KT 15SM SKC M01/M06 A3018 RMK SLP222
Loading
Personal Weather Stations






























Interactive Weather Map New forecast layout! Learn more

10-Day Weather Forecast

Advertisements
Track Severe Weather on mobile